sensor_id;sensor_type;location;lat;lon;timestamp;pressure;altitude;pressure_sealevel;temperature;humidity
21290;BME280;10804;48.988;2.408;2023-02-03T00:02:08;102655.72;;;10.24;67.98
21290;BME280;10804;48.988;2.408;2023-02-03T00:04:35;102653.09;;;10.22;68.22
21290;BME280;10804;48.988;2.408;2023-02-03T00:07:02;102642.66;;;10.22;68.29
21290;BME280;10804;48.988;2.408;2023-02-03T00:09:31;102652.22;;;10.23;68.15
21290;BME280;10804;48.988;2.408;2023-02-03T00:11:58;102648.75;;;10.23;68.29
21290;BME280;10804;48.988;2.408;2023-02-03T00:14:26;102654.81;;;10.23;68.19
21290;BME280;10804;48.988;2.408;2023-02-03T00:16:53;102660.91;;;10.22;68.02
21290;BME280;10804;48.988;2.408;2023-02-03T00:19:20;102654.81;;;10.20;68.05
21290;BME280;10804;48.988;2.408;2023-02-03T00:21:48;102651.34;;;10.21;68.19
21290;BME280;10804;48.988;2.408;2023-02-03T00:24:15;102656.56;;;10.23;67.94
21290;BME280;10804;48.988;2.408;2023-02-03T00:26:45;102641.78;;;10.22;68.17
21290;BME280;10804;48.988;2.408;2023-02-03T00:29:12;102631.34;;;10.22;68.29
21290;BME280;10804;48.988;2.408;2023-02-03T00:31:40;102629.59;;;10.21;68.19
21290;BME280;10804;48.988;2.408;2023-02-03T00:34:07;102636.56;;;10.22;68.13
21290;BME280;10804;48.988;2.408;2023-02-03T00:36:35;102622.66;;;10.20;68.28
21290;BME280;10804;48.988;2.408;2023-02-03T00:39:02;102633.06;;;10.20;68.07
21290;BME280;10804;48.988;2.408;2023-02-03T00:41:30;102627.84;;;10.20;67.98
21290;BME280;10804;48.988;2.408;2023-02-03T00:43:58;102625.28;;;10.21;68.16
21290;BME280;10804;48.988;2.408;2023-02-03T00:46:26;102621.78;;;10.21;68.02
21290;BME280;10804;48.988;2.408;2023-02-03T00:48:53;102612.22;;;10.20;68.31
21290;BME280;10804;48.988;2.408;2023-02-03T00:51:20;102616.56;;;10.19;67.99
21290;BME280;10804;48.988;2.408;2023-02-03T00:53:48;102615.69;;;10.19;68.28
21290;BME280;10804;48.988;2.408;2023-02-03T00:56:15;102616.56;;;10.19;68.08
21290;BME280;10804;48.988;2.408;2023-02-03T00:58:43;102607.00;;;10.20;68.15
21290;BME280;10804;48.988;2.408;2023-02-03T01:01:12;102599.16;;;10.18;68.23
21290;BME280;10804;48.988;2.408;2023-02-03T01:03:39;102604.38;;;10.18;68.05
21290;BME280;10804;48.988;2.408;2023-02-03T01:06:08;102597.47;;;10.20;68.11
21290;BME280;10804;48.988;2.408;2023-02-03T01:08:36;102591.34;;;10.17;68.08
21290;BME280;10804;48.988;2.408;2023-02-03T01:11:05;102592.22;;;10.19;67.99
21290;BME280;10804;48.988;2.408;2023-02-03T01:13:33;102584.41;;;10.19;68.12
21290;BME280;10804;48.988;2.408;2023-02-03T01:16:00;102582.66;;;10.18;67.84
21290;BME280;10804;48.988;2.408;2023-02-03T01:18:29;102576.56;;;10.17;68.05
21290;BME280;10804;48.988;2.408;2023-02-03T01:20:56;102571.34;;;10.17;68.01
21290;BME280;10804;48.988;2.408;2023-02-03T01:23:26;102580.91;;;10.17;68.07
21290;BME280;10804;48.988;2.408;2023-02-03T01:25:53;102573.09;;;10.17;68.18
21290;BME280;10804;48.988;2.408;2023-02-03T01:28:21;102571.34;;;10.16;68.07
21290;BME280;10804;48.988;2.408;2023-02-03T01:30:48;102574.81;;;10.16;68.08
21290;BME280;10804;48.988;2.408;2023-02-03T01:33:15;102572.19;;;10.15;68.04
21290;BME280;10804;48.988;2.408;2023-02-03T01:35:44;102577.41;;;10.15;68.03
21290;BME280;10804;48.988;2.408;2023-02-03T01:38:11;102570.44;;;10.14;68.17
21290;BME280;10804;48.988;2.408;2023-02-03T01:40:41;102560.91;;;10.14;68.40
21290;BME280;10804;48.988;2.408;2023-02-03T01:43:09;102547.00;;;10.12;68.30
21290;BME280;10804;48.988;2.408;2023-02-03T01:45:37;102542.66;;;10.13;68.26
21290;BME280;10804;48.988;2.408;2023-02-03T01:48:07;102547.84;;;10.13;68.04
21290;BME280;10804;48.988;2.408;2023-02-03T01:50:35;102537.44;;;10.13;68.33
21290;BME280;10804;48.988;2.408;2023-02-03T01:53:09;102536.56;;;10.12;68.30
21290;BME280;10804;48.988;2.408;2023-02-03T01:55:40;102539.19;;;10.12;68.01
21290;BME280;10804;48.988;2.408;2023-02-03T01:58:13;102541.78;;;10.12;68.44
21290;BME280;10804;48.988;2.408;2023-02-03T02:00:44;102546.13;;;10.12;68.09
21290;BME280;10804;48.988;2.408;2023-02-03T02:03:13;102544.38;;;10.11;68.25
21290;BME280;10804;48.988;2.408;2023-02-03T02:05:45;102549.59;;;10.11;68.06
21290;BME280;10804;48.988;2.408;2023-02-03T02:08:19;102535.66;;;10.06;68.22
21290;BME280;10804;48.988;2.408;2023-02-03T02:10:48;102546.09;;;10.10;68.43
21290;BME280;10804;48.988;2.408;2023-02-03T02:13:18;102542.63;;;10.10;68.06
21290;BME280;10804;48.988;2.408;2023-02-03T02:15:53;102540.00;;;10.07;68.31
21290;BME280;10804;48.988;2.408;2023-02-03T02:18:39;102545.22;;;10.08;68.24
21290;BME280;10804;48.988;2.408;2023-02-03T02:21:23;102533.09;;;10.09;68.16
21290;BME280;10804;48.988;2.408;2023-02-03T02:24:35;102533.94;;;10.08;68.30
21290;BME280;10804;48.988;2.408;2023-02-03T02:27:15;102508.69;;;10.01;68.22
21290;BME280;10804;48.988;2.408;2023-02-03T02:33:07;102515.69;;;10.08;68.10
21290;BME280;10804;48.988;2.408;2023-02-03T02:35:44;102501.69;;;10.00;68.19
21290;BME280;10804;48.988;2.408;2023-02-03T02:38:22;102517.41;;;10.06;68.30
21290;BME280;10804;48.988;2.408;2023-02-03T02:40:55;102496.47;;;9.89;68.29
21290;BME280;10804;48.988;2.408;2023-02-03T02:43:34;102527.84;;;10.06;68.30
21290;BME280;10804;48.988;2.408;2023-02-03T02:46:09;102526.09;;;10.05;68.57
21290;BME280;10804;48.988;2.408;2023-02-03T02:48:43;102515.63;;;10.02;68.24
21290;BME280;10804;48.988;2.408;2023-02-03T02:51:14;102533.06;;;10.04;68.42
21290;BME280;10804;48.988;2.408;2023-02-03T02:53:46;102541.72;;;10.05;68.37
21290;BME280;10804;48.988;2.408;2023-02-03T02:56:15;102549.56;;;10.05;68.21
21290;BME280;10804;48.988;2.408;2023-02-03T02:58:47;102540.00;;;10.04;68.19
21290;BME280;10804;48.988;2.408;2023-02-03T03:01:15;102542.59;;;10.04;68.07
21290;BME280;10804;48.988;2.408;2023-02-03T03:03:45;102543.50;;;10.04;68.36
21290;BME280;10804;48.988;2.408;2023-02-03T03:06:16;102530.38;;;9.97;68.21
21290;BME280;10804;48.988;2.408;2023-02-03T03:08:48;102547.78;;;10.01;68.48
21290;BME280;10804;48.988;2.408;2023-02-03T03:11:16;102568.63;;;10.02;68.14
21290;BME280;10804;48.988;2.408;2023-02-03T03:13:48;102580.78;;;10.02;68.50
21290;BME280;10804;48.988;2.408;2023-02-03T03:16:23;102582.50;;;10.00;68.17
21290;BME280;10804;48.988;2.408;2023-02-03T03:18:55;102586.88;;;10.02;68.55
21290;BME280;10804;48.988;2.408;2023-02-03T03:21:26;102584.28;;;10.01;68.29
21290;BME280;10804;48.988;2.408;2023-02-03T03:23:58;102566.84;;;10.00;68.35
21290;BME280;10804;48.988;2.408;2023-02-03T03:26:33;102573.81;;;9.98;68.10
21290;BME280;10804;48.988;2.408;2023-02-03T03:29:06;102587.72;;;10.00;68.23
21290;BME280;10804;48.988;2.408;2023-02-03T03:31:37;102567.66;;;9.87;68.15
21290;BME280;10804;48.988;2.408;2023-02-03T03:34:07;102588.59;;;10.00;68.41
21290;BME280;10804;48.988;2.408;2023-02-03T03:36:40;102575.47;;;9.87;68.48
21290;BME280;10804;48.988;2.408;2023-02-03T03:39:13;102585.94;;;9.91;68.57
21290;BME280;10804;48.988;2.408;2023-02-03T03:41:52;102606.81;;;9.99;68.28
21290;BME280;10804;48.988;2.408;2023-02-03T03:44:25;102597.28;;;9.96;68.21
21290;BME280;10804;48.988;2.408;2023-02-03T03:46:59;102604.22;;;9.99;68.43
21290;BME280;10804;48.988;2.408;2023-02-03T03:49:29;102604.22;;;9.97;68.16
21290;BME280;10804;48.988;2.408;2023-02-03T03:52:00;102605.09;;;9.98;68.30
21290;BME280;10804;48.988;2.408;2023-02-03T03:54:30;102584.97;;;9.77;68.17
21290;BME280;10804;48.988;2.408;2023-02-03T03:57:01;102585.00;;;9.79;68.42
21290;BME280;10804;48.988;2.408;2023-02-03T03:59:34;102602.50;;;9.96;68.44
21290;BME280;10804;48.988;2.408;2023-02-03T04:02:04;102587.69;;;9.94;68.39
21290;BME280;10804;48.988;2.408;2023-02-03T04:04:35;102581.53;;;9.84;68.31
21290;BME280;10804;48.988;2.408;2023-02-03T04:07:03;102585.06;;;9.92;68.37
21290;BME280;10804;48.988;2.408;2023-02-03T04:09:31;102601.59;;;9.96;68.49
21290;BME280;10804;48.988;2.408;2023-02-03T04:12:01;102610.28;;;9.95;68.33
21290;BME280;10804;48.988;2.408;2023-02-03T04:14:32;102599.88;;;9.95;68.19
21290;BME280;10804;48.988;2.408;2023-02-03T04:17:00;102582.47;;;9.95;68.46
21290;BME280;10804;48.988;2.408;2023-02-03T04:19:27;102579.88;;;9.95;68.21
21290;BME280;10804;48.988;2.408;2023-02-03T04:21:56;102582.47;;;9.95;68.12
21290;BME280;10804;48.988;2.408;2023-02-03T04:24:24;102581.63;;;9.95;68.19
21290;BME280;10804;48.988;2.408;2023-02-03T04:26:51;102552.78;;;9.71;68.27
21290;BME280;10804;48.988;2.408;2023-02-03T04:29:18;102583.34;;;9.94;68.17
21290;BME280;10804;48.988;2.408;2023-02-03T04:31:48;102565.91;;;9.87;68.27
21290;BME280;10804;48.988;2.408;2023-02-03T04:34:15;102549.44;;;9.87;68.28
21290;BME280;10804;48.988;2.408;2023-02-03T04:36:42;102554.69;;;9.93;68.21
21290;BME280;10804;48.988;2.408;2023-02-03T04:39:11;102570.31;;;9.93;68.18
21290;BME280;10804;48.988;2.408;2023-02-03T04:41:39;102560.72;;;9.89;68.40
21290;BME280;10804;48.988;2.408;2023-02-03T04:44:06;102570.31;;;9.93;68.19
21290;BME280;10804;48.988;2.408;2023-02-03T04:46:34;102569.44;;;9.92;68.34
21290;BME280;10804;48.988;2.408;2023-02-03T04:49:01;102562.47;;;9.91;68.59
21290;BME280;10804;48.988;2.408;2023-02-03T04:51:29;102551.16;;;9.88;68.74
21290;BME280;10804;48.988;2.408;2023-02-03T04:53:56;102564.19;;;9.91;68.45
21290;BME280;10804;48.988;2.408;2023-02-03T04:56:25;102551.16;;;9.91;68.38
21290;BME280;10804;48.988;2.408;2023-02-03T04:58:52;102569.41;;;9.91;68.20
21290;BME280;10804;48.988;2.408;2023-02-03T05:01:20;102565.94;;;9.90;68.58
21290;BME280;10804;48.988;2.408;2023-02-03T05:03:47;102555.47;;;9.81;68.08
21290;BME280;10804;48.988;2.408;2023-02-03T05:06:15;102579.84;;;9.91;68.57
21290;BME280;10804;48.988;2.408;2023-02-03T05:08:42;102557.19;;;9.81;68.48
21290;BME280;10804;48.988;2.408;2023-02-03T05:11:09;102578.94;;;9.87;68.47
21290;BME280;10804;48.988;2.408;2023-02-03T05:13:38;102588.53;;;9.90;68.42
21290;BME280;10804;48.988;2.408;2023-02-03T05:16:05;102594.59;;;9.89;68.17
21290;BME280;10804;48.988;2.408;2023-02-03T05:18:33;102602.41;;;9.89;68.55
21290;BME280;10804;48.988;2.408;2023-02-03T05:21:00;102587.59;;;9.79;68.06
21290;BME280;10804;48.988;2.408;2023-02-03T05:23:28;102598.94;;;9.88;68.62
21290;BME280;10804;48.988;2.408;2023-02-03T05:25:55;102578.06;;;9.82;68.19
21290;BME280;10804;48.988;2.408;2023-02-03T05:28:22;102570.16;;;9.72;68.31
21290;BME280;10804;48.988;2.408;2023-02-03T05:30:51;102582.34;;;9.76;68.61
21290;BME280;10804;48.988;2.408;2023-02-03T05:33:19;102607.59;;;9.87;68.59
21290;BME280;10804;48.988;2.408;2023-02-03T05:35:46;102590.22;;;9.83;68.26
21290;BME280;10804;48.988;2.408;2023-02-03T05:38:13;102605.03;;;9.86;68.51
21290;BME280;10804;48.988;2.408;2023-02-03T05:40:41;102606.75;;;9.87;68.23
21290;BME280;10804;48.988;2.408;2023-02-03T05:43:31;102607.63;;;9.86;68.57
21290;BME280;10804;48.988;2.408;2023-02-03T05:46:00;102610.22;;;9.86;68.43
21290;BME280;10804;48.988;2.408;2023-02-03T05:48:28;102613.69;;;9.85;68.65
21290;BME280;10804;48.988;2.408;2023-02-03T05:50:55;102620.66;;;9.86;68.54
21290;BME280;10804;48.988;2.408;2023-02-03T05:53:23;102610.22;;;9.84;68.42
21290;BME280;10804;48.988;2.408;2023-02-03T05:55:51;102605.84;;;9.83;68.30
21290;BME280;10804;48.988;2.408;2023-02-03T05:58:18;102606.72;;;9.84;68.58
21290;BME280;10804;48.988;2.408;2023-02-03T06:00:46;102602.38;;;9.84;68.50
21290;BME280;10804;48.988;2.408;2023-02-03T06:03:14;102610.19;;;9.83;68.41
21290;BME280;10804;48.988;2.408;2023-02-03T06:05:42;102603.25;;;9.82;68.25
21290;BME280;10804;48.988;2.408;2023-02-03T06:08:10;102601.50;;;9.82;68.49
21290;BME280;10804;48.988;2.408;2023-02-03T06:10:37;102604.09;;;9.84;68.45
21290;BME280;10804;48.988;2.408;2023-02-03T06:13:09;102598.03;;;9.82;68.31
21290;BME280;10804;48.988;2.408;2023-02-03T06:15:37;102605.84;;;9.83;68.63
21290;BME280;10804;48.988;2.408;2023-02-03T06:18:05;102571.84;;;9.65;68.55
21290;BME280;10804;48.988;2.408;2023-02-03T06:20:34;102603.25;;;9.82;68.32
21290;BME280;10804;48.988;2.408;2023-02-03T06:23:01;102607.59;;;9.81;68.25
21290;BME280;10804;48.988;2.408;2023-02-03T06:25:28;102597.97;;;9.76;68.46
21290;BME280;10804;48.988;2.408;2023-02-03T06:27:57;102604.13;;;9.82;68.65
21290;BME280;10804;48.988;2.408;2023-02-03T06:30:24;102613.66;;;9.82;68.28
21290;BME280;10804;48.988;2.408;2023-02-03T06:32:52;102606.69;;;9.78;68.60
21290;BME280;10804;48.988;2.408;2023-02-03T06:35:19;102595.31;;;9.68;68.23
21290;BME280;10804;48.988;2.408;2023-02-03T06:37:48;102608.41;;;9.76;68.42
21290;BME280;10804;48.988;2.408;2023-02-03T06:40:15;102613.66;;;9.82;68.63
21290;BME280;10804;48.988;2.408;2023-02-03T06:42:44;102595.31;;;9.68;68.33
21290;BME280;10804;48.988;2.408;2023-02-03T06:45:12;102618.00;;;9.80;68.51
21290;BME280;10804;48.988;2.408;2023-02-03T06:47:39;102618.00;;;9.80;68.77
21290;BME280;10804;48.988;2.408;2023-02-03T06:50:08;102619.72;;;9.79;68.53
21290;BME280;10804;48.988;2.408;2023-02-03T06:52:35;102614.53;;;9.81;68.65
21290;BME280;10804;48.988;2.408;2023-02-03T06:55:05;102605.78;;;9.76;68.49
21290;BME280;10804;48.988;2.408;2023-02-03T06:57:32;102613.56;;;9.71;68.36
21290;BME280;10804;48.988;2.408;2023-02-03T07:00:00;102624.91;;;9.75;68.54
21290;BME280;10804;48.988;2.408;2023-02-03T07:02:27;102627.53;;;9.79;68.55
21290;BME280;10804;48.988;2.408;2023-02-03T07:04:56;102625.78;;;9.77;68.66
21290;BME280;10804;48.988;2.408;2023-02-03T07:07:23;102631.88;;;9.77;68.59
21290;BME280;10804;48.988;2.408;2023-02-03T07:09:51;102630.16;;;9.78;68.37
21290;BME280;10804;48.988;2.408;2023-02-03T07:12:20;102633.59;;;9.77;68.63
21290;BME280;10804;48.988;2.408;2023-02-03T07:14:47;102633.59;;;9.77;68.25
21290;BME280;10804;48.988;2.408;2023-02-03T07:17:17;102633.56;;;9.74;68.60
21290;BME280;10804;48.988;2.408;2023-02-03T07:19:46;102618.78;;;9.70;68.57
21290;BME280;10804;48.988;2.408;2023-02-03T07:22:13;102635.34;;;9.78;68.65
21290;BME280;10804;48.988;2.408;2023-02-03T07:24:41;102639.69;;;9.79;68.49
21290;BME280;10804;48.988;2.408;2023-02-03T07:27:08;102623.13;;;9.71;68.42
21290;BME280;10804;48.988;2.408;2023-02-03T07:29:37;102638.81;;;9.78;68.52
21290;BME280;10804;48.988;2.408;2023-02-03T07:32:05;102626.66;;;9.77;68.70
21290;BME280;10804;48.988;2.408;2023-02-03T07:34:32;102636.19;;;9.77;68.39
21290;BME280;10804;48.988;2.408;2023-02-03T07:37:00;102603.91;;;9.57;68.35
21290;BME280;10804;48.988;2.408;2023-02-03T07:39:27;102634.44;;;9.76;68.60
21290;BME280;10804;48.988;2.408;2023-02-03T07:41:55;102634.47;;;9.77;68.50
21290;BME280;10804;48.988;2.408;2023-02-03T07:44:23;102615.22;;;9.59;68.51
21290;BME280;10804;48.988;2.408;2023-02-03T07:46:52;102651.00;;;9.78;68.69
21290;BME280;10804;48.988;2.408;2023-02-03T07:49:19;102635.28;;;9.70;68.56
21290;BME280;10804;48.988;2.408;2023-02-03T07:51:46;102651.00;;;9.78;68.58
21290;BME280;10804;48.988;2.408;2023-02-03T07:54:14;102657.03;;;9.77;68.62
21290;BME280;10804;48.988;2.408;2023-02-03T07:56:41;102660.50;;;9.76;68.53
21290;BME280;10804;48.988;2.408;2023-02-03T07:59:09;102660.50;;;9.76;68.42
21290;BME280;10804;48.988;2.408;2023-02-03T08:01:36;102633.50;;;9.62;68.58
21290;BME280;10804;48.988;2.408;2023-02-03T08:04:05;102658.75;;;9.75;68.74
21290;BME280;10804;48.988;2.408;2023-02-03T08:06:33;102671.81;;;9.76;68.35
21290;BME280;10804;48.988;2.408;2023-02-03T08:09:01;102676.13;;;9.76;68.67
21290;BME280;10804;48.988;2.408;2023-02-03T08:11:28;102686.56;;;9.76;68.19
21290;BME280;10804;48.988;2.408;2023-02-03T08:13:57;102688.31;;;9.77;68.79
21290;BME280;10804;48.988;2.408;2023-02-03T08:16:24;102667.38;;;9.65;68.80
21290;BME280;10804;48.988;2.408;2023-02-03T08:18:52;102660.38;;;9.61;68.64
21290;BME280;10804;48.988;2.408;2023-02-03T08:21:24;102672.59;;;9.66;68.38
21290;BME280;10804;48.988;2.408;2023-02-03T08:23:51;102676.09;;;9.70;68.38
21290;BME280;10804;48.988;2.408;2023-02-03T08:26:18;102687.44;;;9.76;68.74
21290;BME280;10804;48.988;2.408;2023-02-03T08:28:47;102679.63;;;9.76;68.37
21290;BME280;10804;48.988;2.408;2023-02-03T08:31:14;102679.63;;;9.76;68.62
21290;BME280;10804;48.988;2.408;2023-02-03T08:33:42;102688.31;;;9.78;68.40
21290;BME280;10804;48.988;2.408;2023-02-03T08:36:09;102695.28;;;9.78;68.69
21290;BME280;10804;48.988;2.408;2023-02-03T08:38:39;102693.50;;;9.77;68.36
21290;BME280;10804;48.988;2.408;2023-02-03T08:41:10;102690.03;;;9.75;68.51
21290;BME280;10804;48.988;2.408;2023-02-03T08:43:39;102700.50;;;9.78;68.73
21290;BME280;10804;48.988;2.408;2023-02-03T08:46:08;102713.53;;;9.79;68.32
21290;BME280;10804;48.988;2.408;2023-02-03T08:48:35;102712.66;;;9.79;68.65
21290;BME280;10804;48.988;2.408;2023-02-03T08:51:08;102709.19;;;9.80;68.60
21290;BME280;10804;48.988;2.408;2023-02-03T08:53:36;102698.72;;;9.77;68.47
21290;BME280;10804;48.988;2.408;2023-02-03T08:56:05;102686.50;;;9.68;68.43
21290;BME280;10804;48.988;2.408;2023-02-03T08:58:32;102663.81;;;9.57;68.35
21290;BME280;10804;48.988;2.408;2023-02-03T09:01:07;102701.41;;;9.81;68.30
21290;BME280;10804;48.988;2.408;2023-02-03T09:03:35;102696.16;;;9.80;68.46
21290;BME280;10804;48.988;2.408;2023-02-03T09:06:06;102699.69;;;9.83;68.58
21290;BME280;10804;48.988;2.408;2023-02-03T09:08:34;102668.22;;;9.64;68.58
21290;BME280;10804;48.988;2.408;2023-02-03T09:11:01;102688.34;;;9.80;68.35
21290;BME280;10804;48.988;2.408;2023-02-03T09:13:31;102686.59;;;9.80;68.53
21290;BME280;10804;48.988;2.408;2023-02-03T09:15:59;102691.88;;;9.85;68.66
21290;BME280;10804;48.988;2.408;2023-02-03T09:18:26;102692.72;;;9.84;68.48
21290;BME280;10804;48.988;2.408;2023-02-03T09:20:59;102700.56;;;9.87;68.28
21290;BME280;10804;48.988;2.408;2023-02-03T09:23:27;102708.41;;;9.87;68.42
21290;BME280;10804;48.988;2.408;2023-02-03T09:25:54;102690.91;;;9.77;68.29
21290;BME280;10804;48.988;2.408;2023-02-03T09:28:21;102704.94;;;9.89;68.51
21290;BME280;10804;48.988;2.408;2023-02-03T09:30:50;102705.81;;;9.90;68.32
21290;BME280;10804;48.988;2.408;2023-02-03T09:33:18;102697.09;;;9.85;68.37
21290;BME280;10804;48.988;2.408;2023-02-03T09:35:51;102709.28;;;9.92;68.58
21290;BME280;10804;48.988;2.408;2023-02-03T09:38:18;102726.69;;;9.93;68.08
21290;BME280;10804;48.988;2.408;2023-02-03T09:40:50;102732.78;;;9.95;68.29
21290;BME280;10804;48.988;2.408;2023-02-03T09:43:30;102718.00;;;9.92;68.33
21290;BME280;10804;48.988;2.408;2023-02-03T09:46:05;102726.75;;;9.97;68.53
21290;BME280;10804;48.988;2.408;2023-02-03T09:48:35;102728.47;;;9.98;68.52
21290;BME280;10804;48.988;2.408;2023-02-03T09:51:07;102735.44;;;9.99;68.65
21290;BME280;10804;48.988;2.408;2023-02-03T09:53:47;102731.97;;;10.02;68.50
21290;BME280;10804;48.988;2.408;2023-02-03T09:56:24;102723.34;;;10.03;68.16
21290;BME280;10804;48.988;2.408;2023-02-03T09:58:53;102711.97;;;9.99;68.25
21290;BME280;10804;48.988;2.408;2023-02-03T10:01:23;102725.09;;;10.07;68.14
21290;BME280;10804;48.988;2.408;2023-02-03T10:03:56;102732.06;;;10.08;68.18
21290;BME280;10804;48.988;2.408;2023-02-03T10:06:30;102714.56;;;9.98;68.43
21290;BME280;10804;48.988;2.408;2023-02-03T10:09:06;102742.53;;;10.11;68.15
21290;BME280;10804;48.988;2.408;2023-02-03T10:11:49;102743.38;;;10.11;68.36
21290;BME280;10804;48.988;2.408;2023-02-03T10:14:27;102723.25;;;10.00;68.17
21290;BME280;10804;48.988;2.408;2023-02-03T10:17:15;102733.84;;;10.15;68.43
21290;BME280;10804;48.988;2.408;2023-02-03T10:19:47;102738.22;;;10.16;67.98
21290;BME280;10804;48.988;2.408;2023-02-03T10:22:19;102734.72;;;10.15;68.25
21290;BME280;10804;48.988;2.408;2023-02-03T10:24:51;102694.53;;;9.92;68.17
21290;BME280;10804;48.988;2.408;2023-02-03T10:27:22;102733.91;;;10.19;68.34
21290;BME280;10804;48.988;2.408;2023-02-03T10:29:55;102744.31;;;10.21;68.13
21290;BME280;10804;48.988;2.408;2023-02-03T10:32:26;102739.13;;;10.22;67.96
21290;BME280;10804;48.988;2.408;2023-02-03T10:34:53;102739.94;;;10.15;67.98
21290;BME280;10804;48.988;2.408;2023-02-03T10:37:25;102744.38;;;10.24;67.98
21290;BME280;10804;48.988;2.408;2023-02-03T10:39:54;102728.63;;;10.15;67.80
21290;BME280;10804;48.988;2.408;2023-02-03T10:42:24;102740.03;;;10.26;68.04
21290;BME280;10804;48.988;2.408;2023-02-03T10:45:11;102748.72;;;10.28;67.92
21290;BME280;10804;48.988;2.408;2023-02-03T10:47:43;102727.78;;;10.17;67.91
21290;BME280;10804;48.988;2.408;2023-02-03T10:50:15;102748.75;;;10.29;67.86
21290;BME280;10804;48.988;2.408;2023-02-03T10:52:43;102743.56;;;10.31;67.84
21290;BME280;10804;48.988;2.408;2023-02-03T10:55:28;102737.47;;;10.32;67.63
21290;BME280;10804;48.988;2.408;2023-02-03T10:57:56;102726.09;;;10.19;67.78
21290;BME280;10804;48.988;2.408;2023-02-03T11:00:28;102750.50;;;10.33;67.85
21290;BME280;10804;48.988;2.408;2023-02-03T11:03:02;102747.91;;;10.35;67.56
21290;BME280;10804;48.988;2.408;2023-02-03T11:05:31;102729.63;;;10.29;67.97
21290;BME280;10804;48.988;2.408;2023-02-03T11:07:58;102754.88;;;10.36;67.66
21290;BME280;10804;48.988;2.408;2023-02-03T11:10:32;102732.25;;;10.32;67.94
21290;BME280;10804;48.988;2.408;2023-02-03T11:13:11;102737.50;;;10.35;67.80
21290;BME280;10804;48.988;2.408;2023-02-03T11:15:44;102729.66;;;10.35;67.66
21290;BME280;10804;48.988;2.408;2023-02-03T11:18:38;102726.19;;;10.34;67.92
21290;BME280;10804;48.988;2.408;2023-02-03T11:21:09;102727.09;;;10.41;67.68
21290;BME280;10804;48.988;2.408;2023-02-03T11:23:44;102726.25;;;10.42;67.79
21290;BME280;10804;48.988;2.408;2023-02-03T11:26:17;102721.00;;;10.40;67.63
21290;BME280;10804;48.988;2.408;2023-02-03T11:28:48;102721.00;;;10.37;67.68
21290;BME280;10804;48.988;2.408;2023-02-03T11:31:19;102737.56;;;10.44;67.73
21290;BME280;10804;48.988;2.408;2023-02-03T11:33:53;102741.91;;;10.45;67.80
21290;BME280;10804;48.988;2.408;2023-02-03T11:36:21;102748.03;;;10.47;67.71
21290;BME280;10804;48.988;2.408;2023-02-03T11:38:48;102752.34;;;10.46;67.69
21290;BME280;10804;48.988;2.408;2023-02-03T11:41:17;102727.09;;;10.41;67.89
21290;BME280;10804;48.988;2.408;2023-02-03T11:43:45;102738.44;;;10.47;67.82
21290;BME280;10804;48.988;2.408;2023-02-03T11:46:13;102729.75;;;10.48;67.69
21290;BME280;10804;48.988;2.408;2023-02-03T11:48:49;102723.69;;;10.48;67.88
21290;BME280;10804;48.988;2.408;2023-02-03T11:51:32;102682.66;;;10.29;67.72
21290;BME280;10804;48.988;2.408;2023-02-03T11:54:17;102683.56;;;10.32;67.59
21290;BME280;10804;48.988;2.408;2023-02-03T11:57:00;102718.47;;;10.51;67.57
21290;BME280;10804;48.988;2.408;2023-02-03T11:59:38;102715.00;;;10.52;67.68
21290;BME280;10804;48.988;2.408;2023-02-03T12:05:41;102713.28;;;10.54;67.76
21290;BME280;10804;48.988;2.408;2023-02-03T12:08:22;102706.28;;;10.53;67.64
21290;BME280;10804;48.988;2.408;2023-02-03T12:11:05;102695.84;;;10.53;67.76
21290;BME280;10804;48.988;2.408;2023-02-03T12:13:57;102700.22;;;10.55;67.69
21290;BME280;10804;48.988;2.408;2023-02-03T12:19:28;102684.59;;;10.57;67.70
21290;BME280;10804;48.988;2.408;2023-02-03T12:22:07;102678.53;;;10.59;67.64
21290;BME280;10804;48.988;2.408;2023-02-03T12:24:46;102665.41;;;10.49;67.70
21290;BME280;10804;48.988;2.408;2023-02-03T12:35:35;102671.59;;;10.63;67.74
21290;BME280;10804;48.988;2.408;2023-02-03T12:38:06;102677.69;;;10.65;67.56
21290;BME280;10804;48.988;2.408;2023-02-03T12:40:40;102672.47;;;10.65;67.60
21290;BME280;10804;48.988;2.408;2023-02-03T12:43:20;102678.56;;;10.67;67.58
21290;BME280;10804;48.988;2.408;2023-02-03T12:45:53;102659.38;;;10.56;67.52
21290;BME280;10804;48.988;2.408;2023-02-03T12:48:25;102677.69;;;10.68;67.59
21290;BME280;10804;48.988;2.408;2023-02-03T12:51:00;102671.63;;;10.69;67.67
21290;BME280;10804;48.988;2.408;2023-02-03T12:53:33;102643.72;;;10.56;67.80
21290;BME280;10804;48.988;2.408;2023-02-03T12:56:06;102653.34;;;10.70;67.77
21290;BME280;10804;48.988;2.408;2023-02-03T12:58:37;102649.00;;;10.71;67.78
21290;BME280;10804;48.988;2.408;2023-02-03T13:01:09;102651.63;;;10.74;67.79
21290;BME280;10804;48.988;2.408;2023-02-03T13:03:41;102654.22;;;10.74;67.88
21290;BME280;10804;48.988;2.408;2023-02-03T13:06:16;102619.38;;;10.57;67.62
21290;BME280;10804;48.988;2.408;2023-02-03T13:08:51;102648.13;;;10.75;67.70
21290;BME280;10804;48.988;2.408;2023-02-03T13:11:26;102640.31;;;10.73;67.84
21290;BME280;10804;48.988;2.408;2023-02-03T13:14:00;102641.22;;;10.77;68.07
21290;BME280;10804;48.988;2.408;2023-02-03T13:16:32;102636.00;;;10.77;67.89
21290;BME280;10804;48.988;2.408;2023-02-03T13:19:05;102639.47;;;10.79;67.85
21290;BME280;10804;48.988;2.408;2023-02-03T13:21:34;102641.22;;;10.80;67.81
21290;BME280;10804;48.988;2.408;2023-02-03T13:24:02;102633.38;;;10.80;67.88
21290;BME280;10804;48.988;2.408;2023-02-03T13:26:57;102622.94;;;10.77;67.83
21290;BME280;10804;48.988;2.408;2023-02-03T13:29:41;102609.00;;;10.75;68.01
21290;BME280;10804;48.988;2.408;2023-02-03T13:32:27;102622.94;;;10.80;67.92